createdAt,value
2022-12-20T00:04:37.209Z,96
2022-12-20T00:14:37.802Z,96
2022-12-20T00:24:38.526Z,96
2022-12-20T00:34:39.528Z,95
2022-12-20T00:44:39.656Z,95
2022-12-20T00:54:39.841Z,95
2022-12-20T01:04:40.556Z,94
2022-12-20T01:14:41.353Z,94
2022-12-20T01:34:42.881Z,93
2022-12-20T01:44:43.830Z,93
2022-12-20T01:54:44.321Z,93
2022-12-20T02:04:45.310Z,93
2022-12-20T02:14:45.988Z,93
2022-12-20T02:34:47.594Z,93
2022-12-20T02:44:47.930Z,93
2022-12-20T02:54:48.734Z,93
2022-12-20T03:04:49.451Z,93
2022-12-20T03:14:50.036Z,93
2022-12-20T03:24:51.130Z,94
2022-12-20T03:34:51.473Z,96
2022-12-20T03:44:52.120Z,97
2022-12-20T03:54:52.198Z,98
2022-12-20T04:04:53.064Z,99
2022-12-20T04:24:54.353Z,99
2022-12-20T04:34:55.434Z,99
2022-12-20T04:44:56.133Z,99
2022-12-20T04:54:57.026Z,100
2022-12-20T05:04:57.948Z,100
2022-12-20T05:14:59.003Z,100
2022-12-20T05:24:59.540Z,100
2022-12-20T05:35:00.267Z,100
2022-12-20T05:45:00.938Z,100
2022-12-20T05:55:01.348Z,100
2022-12-20T06:15:02.691Z,100
2022-12-20T06:25:02.890Z,100
2022-12-20T06:35:03.094Z,100
2022-12-20T06:45:04.118Z,100
2022-12-20T06:55:04.640Z,100
2022-12-20T07:05:05.477Z,100
2022-12-20T07:15:05.719Z,99
2022-12-20T07:35:06.789Z,98
2022-12-20T07:45:06.919Z,97
2022-12-20T08:05:08.142Z,96
2022-12-20T08:15:09.271Z,96
2022-12-20T08:25:09.766Z,95
2022-12-20T08:45:11.296Z,94
2022-12-20T08:55:13.052Z,94
2022-12-20T09:05:13.116Z,93
2022-12-20T09:15:13.232Z,93
2022-12-20T09:25:13.890Z,92
2022-12-20T09:35:17.891Z,92
2022-12-20T09:45:14.514Z,92
2022-12-20T09:55:15.387Z,91
2022-12-20T10:05:15.642Z,91
2022-12-20T10:15:16.289Z,91
2022-12-20T10:25:16.487Z,91
2022-12-20T10:35:16.861Z,92
2022-12-20T10:45:17.863Z,93
2022-12-20T10:55:18.728Z,93
2022-12-20T11:05:18.960Z,93
2022-12-20T11:15:19.075Z,94
2022-12-20T11:25:19.450Z,94
2022-12-20T11:35:20.356Z,94
2022-12-20T11:45:20.928Z,94
2022-12-20T11:55:21.396Z,93
2022-12-20T12:05:22.042Z,93
2022-12-20T12:15:22.988Z,94
2022-12-20T12:25:23.388Z,94
2022-12-20T12:35:24.092Z,94
2022-12-20T12:45:24.926Z,94
2022-12-20T12:55:25.881Z,94
2022-12-20T13:05:26.586Z,95
2022-12-20T13:15:26.437Z,95
2022-12-20T13:25:28.273Z,95
2022-12-20T13:35:27.686Z,94
2022-12-20T13:35:49.572Z,94
2022-12-20T13:45:34.270Z,95
2022-12-20T13:55:34.817Z,97
2022-12-20T14:05:34.954Z,100
2022-12-20T14:15:35.662Z,100
2022-12-20T14:25:36.008Z,100
2022-12-20T14:35:36.355Z,100
2022-12-20T14:45:36.825Z,100
2022-12-20T14:55:37.586Z,100
2022-12-20T15:05:37.784Z,100
2022-12-20T15:15:38.012Z,100
2022-12-20T15:35:38.265Z,100
2022-12-20T15:45:39.192Z,100
2022-12-20T15:55:40.379Z,100
2022-12-20T16:05:40.704Z,100
2022-12-20T16:15:41.572Z,100
2022-12-20T16:25:42.306Z,100
2022-12-20T16:35:43.331Z,100
2022-12-20T16:55:44.725Z,100
2022-12-20T17:05:45.147Z,100
2022-12-20T17:15:45.483Z,100
2022-12-20T17:25:50.350Z,100
2022-12-20T17:35:46.721Z,100
2022-12-20T17:45:47.868Z,100
2022-12-20T18:05:48.871Z,100
2022-12-20T18:15:49.369Z,100
2022-12-20T18:25:50.107Z,100
2022-12-20T18:35:50.662Z,100
2022-12-20T18:45:51.600Z,100
2022-12-20T18:55:51.857Z,100
2022-12-20T19:05:52.701Z,100
2022-12-20T19:15:53.783Z,100
2022-12-20T19:35:55.942Z,100
2022-12-20T19:45:55.024Z,100
2022-12-20T19:55:55.090Z,100
2022-12-20T20:05:55.256Z,100
2022-12-20T20:15:56.152Z,100
2022-12-20T20:25:56.360Z,100
2022-12-20T20:35:56.939Z,100
2022-12-20T20:45:57.620Z,100
2022-12-20T20:55:57.748Z,100
2022-12-20T21:25:59.536Z,100
2022-12-20T21:36:00.554Z,100
2022-12-20T21:56:01.751Z,100
2022-12-20T22:06:02.363Z,100
2022-12-20T22:16:03.078Z,100
2022-12-20T22:26:04.014Z,100
2022-12-20T22:36:04.149Z,100
2022-12-20T22:46:04.869Z,100
2022-12-20T23:26:06.729Z,100
2022-12-20T23:46:07.896Z,100
2022-12-20T23:56:08.487Z,100
